sensor_id;sensor_type;location;lat;lon;timestamp;pressure;altitude;pressure_sealevel;temperature;humidity
55014;BME280;40916;51.632;5.552;2022-08-19T00:00:44;1009.5060596259798;;;16.884846350839478;0
55014;BME280;40916;51.632;5.552;2022-08-19T00:01:45;1009.5070983524691;;;16.846102028134716;0
55014;BME280;40916;51.632;5.552;2022-08-19T00:02:44;1009.5191163119865;;;16.81380616927659;0
55014;BME280;40916;51.632;5.552;2022-08-19T00:03:44;1009.5794309523595;;;16.78796363312752;0
55014;BME280;40916;51.632;5.552;2022-08-19T00:04:44;1009.5315567149388;;;16.76211589134721;0
55014;BME280;40916;51.632;5.552;2022-08-19T00:05:44;1009.5021667324604;;;16.742726665221316;0
55014;BME280;40916;51.632;5.552;2022-08-19T00:06:45;1009.5507959303402;;;16.736262937958717;0
55014;BME280;40916;51.632;5.552;2022-08-19T00:07:45;1009.5400367215808;;;16.716869799198808;0
55014;BME280;40916;51.632;5.552;2022-08-19T00:08:45;1009.544182562333;;;16.697473723013527;0
55014;BME280;40916;51.632;5.552;2022-08-19T00:09:45;1009.5734591872962;;;16.7233345050411;0
55014;BME280;40916;51.632;5.552;2022-08-19T00:10:45;1009.5992788155012;;;16.736262937958717;0
55014;BME280;40916;51.632;5.552;2022-08-19T00:11:45;1009.5396075751662;;;16.736262937958717;0
55014;BME280;40916;51.632;5.552;2022-08-19T00:12:45;1009.5727324649994;;;16.75565314182203;0
55014;BME280;40916;51.632;5.552;2022-08-19T00:13:45;1009.5206667908552;;;16.749190066477905;0
55014;BME280;40916;51.632;5.552;2022-08-19T00:14:45;1009.5205179545837;;;16.75565314182203;0
55014;BME280;40916;51.632;5.552;2022-08-19T00:15:45;1009.5579623469611;;;16.749190066477905;0
55014;BME280;40916;51.632;5.552;2022-08-19T00:16:46;1009.4542629593691;;;16.716869799198808;0
55014;BME280;40916;51.632;5.552;2022-08-19T00:17:46;1009.5256732087194;;;16.69100771108642;0
55014;BME280;40916;51.632;5.552;2022-08-19T00:18:46;1009.5817437005636;;;16.684541372403604;0
55014;BME280;40916;51.632;5.552;2022-08-19T00:19:46;1009.5449782877614;;;16.65867274823725;0
55014;BME280;40916;51.632;5.552;2022-08-19T00:20:46;1009.519004639987;;;16.652204774367075;0
55014;BME280;40916;51.632;5.552;2022-08-19T00:21:46;1009.5487071148622;;;16.65867274823725;0
55014;BME280;40916;51.632;5.552;2022-08-19T00:22:46;1009.500232372105;;;16.65867274823725;0
55014;BME280;40916;51.632;5.552;2022-08-19T00:23:46;1009.5593694836995;;;16.684541372403604;0
55014;BME280;40916;51.632;5.552;2022-08-19T00:24:46;1009.5291283323472;;;16.703939408278767;0
55014;BME280;40916;51.632;5.552;2022-08-19T00:25:46;1009.4724774672773;;;16.736262937958717;0
55014;BME280;40916;51.632;5.552;2022-08-19T00:26:47;1009.5240973963329;;;16.76211589134721;0
55014;BME280;40916;51.632;5.552;2022-08-19T00:27:47;1009.5794309523595;;;16.78796363312752;0
55014;BME280;40916;51.632;5.552;2022-08-19T00:28:47;1009.4861842629247;;;16.78796363312752;0
55014;BME280;40916;51.632;5.552;2022-08-19T00:29:47;1009.5416577095149;;;16.80734602294073;0
55014;BME280;40916;51.632;5.552;2022-08-19T00:30:47;1009.5301440593755;;;16.82026599063353;0
55014;BME280;40916;51.632;5.552;2022-08-19T00:31:47;1009.5191163119865;;;16.81380616927659;0
55014;BME280;40916;51.632;5.552;2022-08-19T00:32:47;1009.5523612819563;;;16.826725487104707;0
55014;BME280;40916;51.632;5.552;2022-08-19T00:33:47;1009.5859329097483;;;16.826725487104707;0
55014;BME280;40916;51.632;5.552;2022-08-19T00:34:47;1009.5862576854412;;;16.81380616927659;0
55014;BME280;40916;51.632;5.552;2022-08-19T00:35:48;1009.5418172747404;;;16.800885551532758;0
55014;BME280;40916;51.632;5.552;2022-08-19T00:36:48;1009.5492772188144;;;16.800885551532758;0
55014;BME280;40916;51.632;5.552;2022-08-19T00:37:48;1009.5012597271723;;;16.78150218594369;0
55014;BME280;40916;51.632;5.552;2022-08-19T00:38:48;1009.5794309523595;;;16.78796363312752;0
55014;BME280;40916;51.632;5.552;2022-08-19T00:39:48;1009.6431454095739;;;16.775040413314617;0
55014;BME280;40916;51.632;5.552;2022-08-19T00:40:48;1009.6428387449208;;;16.78796363312752;0
55014;BME280;40916;51.632;5.552;2022-08-19T00:41:49;1009.598388212577;;;16.775040413314617;0
55014;BME280;40916;51.632;5.552;2022-08-19T00:42:48;1009.6059995263688;;;16.768578315146925;0
55014;BME280;40916;51.632;5.552;2022-08-19T00:43:57;1009.6438879102836;;;16.742726665221316;0
55014;BME280;40916;51.632;5.552;2022-08-19T00:44:49;1009.6034347613868;;;16.716869799198808;0
55014;BME280;40916;51.632;5.552;2022-08-19T00:45:49;1009.6264921475196;;;16.684541372403604;0
55014;BME280;40916;51.632;5.552;2022-08-19T00:46:50;1009.6118393649903;;;16.671607714395318;0
55014;BME280;40916;51.632;5.552;2022-08-19T00:47:49;1009.6606981447519;;;16.652204774367075;0
55014;BME280;40916;51.632;5.552;2022-08-19T00:48:49;1009.6164460883725;;;16.626329604750403;0
55014;BME280;40916;51.632;5.552;2022-08-19T00:49:50;1009.6688829288622;;;16.61339005414235;0
55014;BME280;40916;51.632;5.552;2022-08-19T00:50:50;1009.6284405422098;;;16.581035437991293;0
55014;BME280;40916;51.632;5.552;2022-08-19T00:51:50;1009.6288721377389;;;16.555145835219886;0
55014;BME280;40916;51.632;5.552;2022-08-19T00:52:50;1009.5736594515233;;;16.50982637043992;0
55014;BME280;40916;51.632;5.552;2022-08-19T00:53:50;1009.6076692063157;;;16.477445444127905;0
55014;BME280;40916;51.632;5.552;2022-08-19T00:54:50;1009.660193271079;;;16.45153476594039;0
55014;BME280;40916;51.632;5.552;2022-08-19T00:55:50;1009.6384475908773;;;16.399697551316343;0
55014;BME280;40916;51.632;5.552;2022-08-19T00:56:50;1009.5753716248231;;;16.373771002675785;0
55014;BME280;40916;51.632;5.552;2022-08-19T00:57:51;1009.6203438679123;;;16.34783915166452;0
55014;BME280;40916;51.632;5.552;2022-08-19T00:58:50;1009.5645690550814;;;16.334871235856014;0
55014;BME280;40916;51.632;5.552;2022-08-19T00:59:51;1009.6763557435864;;;16.334871235856014;0
55014;BME280;40916;51.632;5.552;2022-08-19T01:00:50;1009.5760226499817;;;16.30244563513553;0
55014;BME280;40916;51.632;5.552;2022-08-19T01:01:50;1009.5650854626465;;;16.27001172310399;0
55014;BME280;40916;51.632;5.552;2022-08-19T01:02:51;1009.5987429410715;;;16.25054738145764;0
55014;BME280;40916;51.632;5.552;2022-08-19T01:03:51;1009.5689385967133;;;16.25054738145764;0
55014;BME280;40916;51.632;5.552;2022-08-19T01:04:51;1009.5428998398704;;;16.244058601260132;0
55014;BME280;40916;51.632;5.552;2022-08-19T01:05:51;1009.5874396593864;;;16.27001172310399;0
55014;BME280;40916;51.632;5.552;2022-08-19T01:06:51;1009.5427312703079;;;16.27001172310399;0
55014;BME280;40916;51.632;5.552;2022-08-19T01:07:51;1009.5874396593864;;;16.27001172310399;0
55014;BME280;40916;51.632;5.552;2022-08-19T01:08:51;1009.5465853435791;;;16.25054738145764;0
55014;BME280;40916;51.632;5.552;2022-08-19T01:09:51;1009.5243112898321;;;16.237569487744366;0
55014;BME280;40916;51.632;5.552;2022-08-19T01:10:53;1009.5056841081663;;;16.237569487744366;0
55014;BME280;40916;51.632;5.552;2022-08-19T01:11:51;1009.4756687197014;;;16.27001172310399;0
55014;BME280;40916;51.632;5.552;2022-08-19T01:12:52;1009.4829257656492;;;16.29595951801832;0
55014;BME280;40916;51.632;5.552;2022-08-19T01:13:52;1009.5756279488112;;;16.34783915166452;0
55014;BME280;40916;51.632;5.552;2022-08-19T01:14:52;1009.4935211480207;;;16.360805740349115;0
55014;BME280;40916;51.632;5.552;2022-08-19T01:15:53;1009.5119520917672;;;16.380253136694105;0
55014;BME280;40916;51.632;5.552;2022-08-19T01:16:52;1009.4857957765948;;;16.386734939409926;0
55014;BME280;40916;51.632;5.552;2022-08-19T01:17:52;1009.5713661945831;;;16.399697551316343;0
55014;BME280;40916;51.632;5.552;2022-08-19T01:18:52;1009.6121382612357;;;16.419138986795566;0
55014;BME280;40916;51.632;5.552;2022-08-19T01:19:52;1009.5786720614386;;;16.412658839159263;0
55014;BME280;40916;51.632;5.552;2022-08-19T01:20:53;1009.5598840992185;;;16.425618803702314;0
55014;BME280;40916;51.632;5.552;2022-08-19T01:21:54;1009.5598051433526;;;16.43209828997486;0
55014;BME280;40916;51.632;5.552;2022-08-19T01:22:53;1009.6195153374706;;;16.425618803702314;0
55014;BME280;40916;51.632;5.552;2022-08-19T01:23:53;1009.6495557068702;;;16.406178360698;0
55014;BME280;40916;51.632;5.552;2022-08-19T01:24:53;1009.6053140290352;;;16.360805740349115;0
55014;BME280;40916;51.632;5.552;2022-08-19T01:25:53;1009.560722646358;;;16.34783915166452;0
55014;BME280;40916;51.632;5.552;2022-08-19T01:26:53;1009.5832578439378;;;16.328386780040763;0
55014;BME280;40916;51.632;5.552;2022-08-19T01:27:53;1009.5796964770452;;;16.308931419800377;0
55014;BME280;40916;51.632;5.552;2022-08-19T01:28:54;1009.5797993432186;;;16.29595951801832;0
55014;BME280;40916;51.632;5.552;2022-08-19T01:29:54;1009.620880456401;;;16.282986286042505;0
55014;BME280;40916;51.632;5.552;2022-08-19T01:30:54;1009.5539951429967;;;16.257035828433242;0
55014;BME280;40916;51.632;5.552;2022-08-19T01:31:54;1009.5798966049592;;;16.282986286042505;0
55014;BME280;40916;51.632;5.552;2022-08-19T01:32:54;1009.5426385710324;;;16.282986286042505;0
55014;BME280;40916;51.632;5.552;2022-08-19T01:33:55;1009.5612675864675;;;16.282986286042505;0
55014;BME280;40916;51.632;5.552;2022-08-19T01:34:54;1009.5314611632385;;;16.282986286042505;0
55014;BME280;40916;51.632;5.552;2022-08-19T01:35:54;1009.445908758434;;;16.263523942283264;0
55014;BME280;40916;51.632;5.552;2022-08-19T01:36:54;1009.5428183606826;;;16.257035828433242;0
55014;BME280;40916;51.632;5.552;2022-08-19T01:37:55;1009.5317233719919;;;16.244058601260132;0
55014;BME280;40916;51.632;5.552;2022-08-19T01:38:55;1009.5019194630277;;;16.244058601260132;0
55014;BME280;40916;51.632;5.552;2022-08-19T01:39:55;1009.5579470787324;;;16.218100146323348;0
55014;BME280;40916;51.632;5.552;2022-08-19T01:40:55;1009.5170649319897;;;16.198627801565497;0
55014;BME280;40916;51.632;5.552;2022-08-19T01:41:55;1009.5730468957985;;;16.172659998856805;0
55014;BME280;40916;51.632;5.552;2022-08-19T01:42:55;1009.5619553765536;;;16.14668684605675;0
55014;BME280;40916;51.632;5.552;2022-08-19T01:43:55;1009.5508147402796;;;16.133698261435597;0
55014;BME280;40916;51.632;5.552;2022-08-19T01:44:55;1009.5210588475009;;;16.11421287204576;0
55014;BME280;40916;51.632;5.552;2022-08-19T01:45:55;1009.5210790795439;;;16.101220936348;0
55014;BME280;40916;51.632;5.552;2022-08-19T01:46:55;1009.6030268641487;;;16.08822765885986;0
55014;BME280;40916;51.632;5.552;2022-08-19T01:47:56;1009.565794248553;;;16.062237075400272;0
55014;BME280;40916;51.632;5.552;2022-08-19T01:48:56;1009.5583337817044;;;16.036241115436628;0
55014;BME280;40916;51.632;5.552;2022-08-19T01:49:56;1009.543404334991;;;16.010239772728923;0
55014;BME280;40916;51.632;5.552;2022-08-19T01:50:56;1009.617832898732;;;15.990735229513149;0
55014;BME280;40916;51.632;5.552;2022-08-19T01:51:56;1009.5730970046991;;;15.97122765234845;0
55014;BME280;40916;51.632;5.552;2022-08-19T01:52:57;1009.6289246700713;;;15.964724451959249;0
55014;BME280;40916;51.632;5.552;2022-08-19T01:53:56;1009.5357200487057;;;15.932203385596338;0
55014;BME280;40916;51.632;5.552;2022-08-19T01:54:56;1009.6063953533975;;;15.919192593825496;0
55014;BME280;40916;51.632;5.552;2022-08-19T01:55:56;1009.5504867801203;;;15.906180449318828;0
55014;BME280;40916;51.632;5.552;2022-08-19T01:56:58;1009.6211463513563;;;15.893166951289967;0
55014;BME280;40916;51.632;5.552;2022-08-19T01:57:58;1009.5838419535111;;;15.880152098951942;0
55014;BME280;40916;51.632;5.552;2022-08-19T01:58:58;1009.6394573214318;;;15.84760903783424;0
55014;BME280;40916;51.632;5.552;2022-08-19T01:59:57;1009.5946406900564;;;15.828079130747287;0
55014;BME280;40916;51.632;5.552;2022-08-19T02:00:57;1009.6317546334633;;;15.815057495037415;0
55014;BME280;40916;51.632;5.552;2022-08-19T02:01:57;1009.646470247428;;;15.795522493018126;0
55014;BME280;40916;51.632;5.552;2022-08-19T02:02:57;1009.6946673396329;;;15.775984430479;0
55014;BME280;40916;51.632;5.552;2022-08-19T02:03:57;1009.6422962859145;;;15.749928914995781;0
55014;BME280;40916;51.632;5.552;2022-08-19T02:04:57;1009.6794406496393;;;15.743414184494096;0
55014;BME280;40916;51.632;5.552;2022-08-19T02:05:58;1009.7127114504858;;;15.723867947486728;0
55014;BME280;40916;51.632;5.552;2022-08-19T02:06:58;1009.7462792652833;;;15.7303837008389;0
55014;BME280;40916;51.632;5.552;2022-08-19T02:07:58;1009.7460468991748;;;15.710835417236279;0
55014;BME280;40916;51.632;5.552;2022-08-19T02:08:58;1009.6640206727138;;;15.697801521594666;0
55014;BME280;40916;51.632;5.552;2022-08-19T02:09:58;1009.6976712408788;;;15.710835417236279;0
55014;BME280;40916;51.632;5.552;2022-08-19T02:10:58;1009.8395368269282;;;15.749928914995781;0
55014;BME280;40916;51.632;5.552;2022-08-19T02:11:58;1009.7015475239184;;;15.723867947486728;0
55014;BME280;40916;51.632;5.552;2022-08-19T02:12:58;1009.7015475239184;;;15.723867947486728;0
55014;BME280;40916;51.632;5.552;2022-08-19T02:13:59;1009.7201540688073;;;15.723867947486728;0
55014;BME280;40916;51.632;5.552;2022-08-19T02:14:59;1009.7240253796064;;;15.736899113141575;0
55014;BME280;40916;51.632;5.552;2022-08-19T02:15:59;1009.7537966975407;;;15.736899113141575;0
55014;BME280;40916;51.632;5.552;2022-08-19T02:16:59;1009.7237196697075;;;15.710835417236279;0
55014;BME280;40916;51.632;5.552;2022-08-19T02:17:59;1009.7052688326523;;;15.723867947486728;0
55014;BME280;40916;51.632;5.552;2022-08-19T02:18:59;1009.8246507364063;;;15.749928914995781;0
55014;BME280;40916;51.632;5.552;2022-08-19T02:19:59;1009.7612395282441;;;15.736899113141575;0
55014;BME280;40916;51.632;5.552;2022-08-19T02:20:59;1009.7463538673253;;;15.736899113141575;0
55014;BME280;40916;51.632;5.552;2022-08-19T02:21:59;1009.7871376556558;;;15.723867947486728;0
55014;BME280;40916;51.632;5.552;2022-08-19T02:22:59;1009.7312407516469;;;15.717351852985662;0
55014;BME280;40916;51.632;5.552;2022-08-19T02:23:59;1009.7871376556558;;;15.723867947486728;0
55014;BME280;40916;51.632;5.552;2022-08-19T02:24:59;1009.749924546972;;;15.723867947486728;0
55014;BME280;40916;51.632;5.552;2022-08-19T02:26:00;1009.7386832663311;;;15.717351852985662;0
55014;BME280;40916;51.632;5.552;2022-08-19T02:27:00;1009.7720953391024;;;15.710835417236279;0
55014;BME280;40916;51.632;5.552;2022-08-19T02:28:00;1009.7201540688073;;;15.723867947486728;0
55014;BME280;40916;51.632;5.552;2022-08-19T02:29:00;1009.626809701569;;;15.697801521594666;0
55014;BME280;40916;51.632;5.552;2022-08-19T02:30:00;1009.6753440209253;;;15.710835417236279;0
55014;BME280;40916;51.632;5.552;2022-08-19T02:31:00;1009.783095862335;;;15.697801521594666;0
55014;BME280;40916;51.632;5.552;2022-08-19T02:32:00;1009.7455436204403;;;15.671729630952537;0
55014;BME280;40916;51.632;5.552;2022-08-19T02:33:00;1009.7492645111386;;;15.671729630952537;0
55014;BME280;40916;51.632;5.552;2022-08-19T02:34:00;1009.7793747607692;;;15.697801521594666;0
55014;BME280;40916;51.632;5.552;2022-08-19T02:35:00;1009.7759737217699;;;15.723867947486728;0
55014;BME280;40916;51.632;5.552;2022-08-19T02:36:02;1009.873102644285;;;15.756443304745897;0
55014;BME280;40916;51.632;5.552;2022-08-19T02:37:01;1009.8622114621478;;;15.782497458214806;0
55014;BME280;40916;51.632;5.552;2022-08-19T02:39:01;1009.8400700120261;;;15.802034500283682;0
55014;BME280;40916;51.632;5.552;2022-08-19T02:40:01;1009.8289041861875;;;15.802034500283682;0
55014;BME280;40916;51.632;5.552;2022-08-19T02:41:02;1009.8324371807734;;;15.782497458214806;0
55014;BME280;40916;51.632;5.552;2022-08-19T02:42:01;1009.8805457973052;;;15.756443304745897;0
55014;BME280;40916;51.632;5.552;2022-08-19T02:43:02;1009.9028027334214;;;15.749928914995781;0
55014;BME280;40916;51.632;5.552;2022-08-19T02:44:02;1009.850477464846;;;15.7303837008389;0
55014;BME280;40916;51.632;5.552;2022-08-19T02:45:02;1009.8203068847037;;;15.697801521594666;0
55014;BME280;40916;51.632;5.552;2022-08-19T02:46:02;1009.8052530374246;;;15.684766259765688;0
55014;BME280;40916;51.632;5.552;2022-08-19T02:47:02;1009.8277490906409;;;15.697801521594666;0
55014;BME280;40916;51.632;5.552;2022-08-19T02:48:02;1009.9173836321036;;;15.723867947486728;0
55014;BME280;40916;51.632;5.552;2022-08-19T02:49:03;1009.865362929733;;;15.7303837008389;0
55014;BME280;40916;51.632;5.552;2022-08-19T02:50:02;1009.9437395152324;;;15.749928914995781;0
55014;BME280;40916;51.632;5.552;2022-08-19T02:51:02;1009.914249490062;;;15.775984430479;0
55014;BME280;40916;51.632;5.552;2022-08-19T02:52:02;1009.8658669458619;;;15.775984430479;0
55014;BME280;40916;51.632;5.552;2022-08-19T02:53:02;1009.9181038722295;;;15.789010145694835;0
55014;BME280;40916;51.632;5.552;2022-08-19T02:54:03;1009.8657992193698;;;15.76947106238833;0
55014;BME280;40916;51.632;5.552;2022-08-19T02:55:03;1009.9253461304753;;;15.76947106238833;0
55014;BME280;40916;51.632;5.552;2022-08-19T02:56:05;1009.9028027334214;;;15.749928914995781;0
55014;BME280;40916;51.632;5.552;2022-08-19T02:57:03;1009.9400179890034;;;15.749928914995781;0
55014;BME280;40916;51.632;5.552;2022-08-19T02:58:03;1009.8953596837687;;;15.749928914995781;0
55014;BME280;40916;51.632;5.552;2022-08-19T02:59:03;1009.9664878011483;;;15.789010145694835;0
55014;BME280;40916;51.632;5.552;2022-08-19T03:00:04;1009.9068728988501;;;15.782497458214806;0
55014;BME280;40916;51.632;5.552;2022-08-19T03:01:03;1009.9554502766607;;;15.802034500283682;0
55014;BME280;40916;51.632;5.552;2022-08-19T03:02:03;1009.9256747132715;;;15.802034500283682;0
55014;BME280;40916;51.632;5.552;2022-08-19T03:03:03;1009.8885161913969;;;15.808546167590471;0
55014;BME280;40916;51.632;5.552;2022-08-19T03:04:04;1009.8996211017118;;;15.802034500283682;0
55014;BME280;40916;51.632;5.552;2022-08-19T03:05:06;1009.9555725825827;;;15.815057495037415;0
55014;BME280;40916;51.632;5.552;2022-08-19T03:06:05;1009.8699062123678;;;15.808546167590471;0
55014;BME280;40916;51.632;5.552;2022-08-19T03:07:04;1009.8996211017118;;;15.802034500283682;0
55014;BME280;40916;51.632;5.552;2022-08-19T03:08:04;1009.9480063850814;;;15.802034500283682;0
55014;BME280;40916;51.632;5.552;2022-08-19T03:09:04;1009.8364670226531;;;15.815057495037415;0
55014;BME280;40916;51.632;5.552;2022-08-19T03:10:04;1009.8663575010386;;;15.828079130747287;0
55014;BME280;40916;51.632;5.552;2022-08-19T03:11:04;1009.8628462759987;;;15.854118328197437;0
55014;BME280;40916;51.632;5.552;2022-08-19T03:12:04;1009.8406990416771;;;15.880152098951942;0
55014;BME280;40916;51.632;5.552;2022-08-19T03:13:04;1009.7885830637529;;;15.880152098951942;0
55014;BME280;40916;51.632;5.552;2022-08-19T03:14:06;1009.792467128881;;;15.906180449318828;0
55014;BME280;40916;51.632;5.552;2022-08-19T03:15:06;1009.7513573798824;;;15.880152098951942;0
55014;BME280;40916;51.632;5.552;2022-08-19T03:16:05;1009.8445860407346;;;15.906180449318828;0
55014;BME280;40916;51.632;5.552;2022-08-19T03:17:05;1009.8260797804512;;;15.925698158753772;0
55014;BME280;40916;51.632;5.552;2022-08-19T03:18:05;1009.7889437291269;;;15.945212825417116;0
55014;BME280;40916;51.632;5.552;2022-08-19T03:19:05;1009.8263261738659;;;15.984233041027483;0
55014;BME280;40916;51.632;5.552;2022-08-19T03:20:05;1009.863663966425;;;16.02324111731616;0
55014;BME280;40916;51.632;5.552;2022-08-19T03:21:05;1009.8041060015989;;;16.036241115436628;0
55014;BME280;40916;51.632;5.552;2022-08-19T03:22:05;1009.8786005636509;;;16.04923976787123;0
55014;BME280;40916;51.632;5.552;2022-08-19T03:23:05;1009.8376204364429;;;16.036241115436628;0
55014;BME280;40916;51.632;5.552;2022-08-19T03:24:07;1009.871144496202;;;16.04274060981588;0
55014;BME280;40916;51.632;5.552;2022-08-19T03:25:06;1009.9753896134353;;;16.02974128463592;0
55014;BME280;40916;51.632;5.552;2022-08-19T03:26:06;1009.923195546743;;;16.003738595266064;0
55014;BME280;40916;51.632;5.552;2022-08-19T03:27:06;1009.9827319024806;;;15.990735229513149;0
55014;BME280;40916;51.632;5.552;2022-08-19T03:28:06;1009.8709609788577;;;15.97122765234845;0
55014;BME280;40916;51.632;5.552;2022-08-19T03:29:06;1009.8336772263557;;;15.958220914072971;0
55014;BME280;40916;51.632;5.552;2022-08-19T03:30:06;1009.8707199399264;;;15.919192593825496;0
55014;BME280;40916;51.632;5.552;2022-08-19T03:31:07;1009.8260453187061;;;15.919192593825496;0
55014;BME280;40916;51.632;5.552;2022-08-19T03:32:06;1009.9229105814619;;;15.932203385596338;0
55014;BME280;40916;51.632;5.552;2022-08-19T03:33:07;1009.8968822599223;;;15.9387082744514;0
55014;BME280;40916;51.632;5.552;2022-08-19T03:34:06;1009.9341127033305;;;15.9387082744514;0
55014;BME280;40916;51.632;5.552;2022-08-19T03:35:07;1009.9414908773975;;;15.925698158753772;0
55014;BME280;40916;51.632;5.552;2022-08-19T03:36:08;1009.989774564201;;;15.906180449318828;0
55014;BME280;40916;51.632;5.552;2022-08-19T03:37:08;1009.959727388279;;;15.867135891517165;0
55014;BME280;40916;51.632;5.552;2022-08-19T03:38:07;1009.9336701021492;;;15.867135891517165;0
55014;BME280;40916;51.632;5.552;2022-08-19T03:39:07;1009.9742999762939;;;15.828079130747287;0
55014;BME280;40916;51.632;5.552;2022-08-19T03:40:07;1009.970274563823;;;15.795522493018126;0
55014;BME280;40916;51.632;5.552;2022-08-19T03:41:08;1009.95532227726;;;15.789010145694835;0
55014;BME280;40916;51.632;5.552;2022-08-19T03:42:08;1009.9291364308872;;;15.775984430479;0
55014;BME280;40916;51.632;5.552;2022-08-19T03:43:07;1009.9438126176793;;;15.756443304745897;0
55014;BME280;40916;51.632;5.552;2022-08-19T03:44:07;1009.8841951102048;;;15.749928914995781;0
55014;BME280;40916;51.632;5.552;2022-08-19T03:45:08;1009.9211049479119;;;15.723867947486728;0
55014;BME280;40916;51.632;5.552;2022-08-19T03:46:09;1009.8910078608039;;;15.697801521594666;0
55014;BME280;40916;51.632;5.552;2022-08-19T03:47:08;1009.7940900455369;;;15.684766259765688;0
55014;BME280;40916;51.632;5.552;2022-08-19T03:48:08;1009.77158985789;;;15.671729630952537;0
55014;BME280;40916;51.632;5.552;2022-08-19T03:49:08;1009.775310749442;;;15.671729630952537;0
55014;BME280;40916;51.632;5.552;2022-08-19T03:50:08;1009.8087090072554;;;15.665210803677727;0
55014;BME280;40916;51.632;5.552;2022-08-19T03:51:14;1009.7376436666854;;;15.639132073129247;0
55014;BME280;40916;51.632;5.552;2022-08-19T03:52:08;1009.7522334820545;;;15.619569429900306;0
55014;BME280;40916;51.632;5.552;2022-08-19T03:53:08;1009.7146205682785;;;15.59348110670647;0
55014;BME280;40916;51.632;5.552;2022-08-19T03:54:10;1009.755109997129;;;15.567387293195083;0
55014;BME280;40916;51.632;5.552;2022-08-19T03:55:09;1009.7248948867841;;;15.541287982949353;0
55014;BME280;40916;51.632;5.552;2022-08-19T03:56:09;1009.728614727408;;;15.541287982949353;0
55014;BME280;40916;51.632;5.552;2022-08-19T03:57:09;1009.8926381005167;;;15.560862981203371;0
55014;BME280;40916;51.632;5.552;2022-08-19T03:58:09;1009.8890319305896;;;15.567387293195083;0
55014;BME280;40916;51.632;5.552;2022-08-19T03:59:10;1009.7962513122791;;;15.580434886641285;0
55014;BME280;40916;51.632;5.552;2022-08-19T04:00:10;1009.7776505246715;;;15.580434886641285;0
55014;BME280;40916;51.632;5.552;2022-08-19T04:01:10;1009.7478892708381;;;15.580434886641285;0
55014;BME280;40916;51.632;5.552;2022-08-19T04:02:10;1009.7516094271406;;;15.580434886641285;0
55014;BME280;40916;51.632;5.552;2022-08-19T04:03:10;1009.7660445152724;;;15.55433832556545;0
55014;BME280;40916;51.632;5.552;2022-08-19T04:04:10;1009.8026521640785;;;15.521709889167408;0
55014;BME280;40916;51.632;5.552;2022-08-19T04:05:10;1009.8546043674068;;;15.515183169542496;0
55014;BME280;40916;51.632;5.552;2022-08-19T04:06:11;1009.8243409779705;;;15.489072846537706;0
55014;BME280;40916;51.632;5.552;2022-08-19T04:07:11;1009.8277985153943;;;15.476015616921831;0
55014;BME280;40916;51.632;5.552;2022-08-19T04:08:10;1009.9053587929733;;;15.44989701742914;0
55014;BME280;40916;51.632;5.552;2022-08-19T04:09:11;1009.823538373967;;;15.44989701742914;0
55014;BME280;40916;51.632;5.552;2022-08-19T04:10:10;1009.8710282782255;;;15.410708755416845;0
55014;BME280;40916;51.632;5.552;2022-08-19T04:11:12;1009.8857551201081;;;15.404176168126675;0
55014;BME280;40916;51.632;5.552;2022-08-19T04:12:11;1009.859871893951;;;15.410708755416845;0
55014;BME280;40916;51.632;5.552;2022-08-19T04:13:11;1009.8412779225962;;;15.410708755416845;0
55014;BME280;40916;51.632;5.552;2022-08-19T04:14:12;1009.8336927317795;;;15.404176168126675;0
55014;BME280;40916;51.632;5.552;2022-08-19T04:15:11;1009.8375591286907;;;15.410708755416845;0
55014;BME280;40916;51.632;5.552;2022-08-19T04:16:11;1009.8002240661751;;;15.404176168126675;0